Time;durP1;ratioP1;P1;durP2;ratioP2;P2;SDS_P1;SDS_P2;PMS_P1;PMS_P2;Temp;Humidity;BMP_temperature;BMP_pressure;BME280_temperature;BME280_humidity;BME280_pressure;Samples;Min_cycle;Max_cycle;Signal;HPM_P1;HPM_P2
2022/04/22 00:01:02;;;;;;;22.43;14.53;;;;;;;1.44;100.00;100329.66;1732898;81;21188;-78
2022/04/22 00:04:09;;;;;;;21.33;14.28;;;;;;;1.44;100.00;100330.14;1731341;82;21185;-79
2022/04/22 00:07:15;;;;;;;28.27;16.25;;;;;;;1.42;100.00;100324.88;1731010;82;21634;-78
2022/04/22 00:10:21;;;;;;;25.17;15.10;;;;;;;1.42;100.00;100329.41;1736783;81;21164;-78
2022/04/22 00:13:27;;;;;;;19.67;13.72;;;;;;;1.43;100.00;100325.73;1742249;81;21824;-78
2022/04/22 00:16:36;;;;;;;28.60;16.12;;;;;;;1.43;100.00;100327.08;1743433;82;21831;-78
2022/04/22 00:19:42;;;;;;;27.70;18.40;;;;;;;1.44;100.00;100327.45;1741902;81;21753;-78
2022/04/22 00:22:49;;;;;;;30.77;19.00;;;;;;;1.46;100.00;100332.25;1743164;82;21833;-78
2022/04/22 00:25:56;;;;;;;26.35;17.12;;;;;;;1.44;100.00;100331.00;1745009;82;21180;-78
2022/04/22 00:28:55;;;;;;;25.60;15.60;;;;;;;1.43;100.00;100325.73;1744361;81;21507;-78
2022/04/22 00:32:01;;;;;;;51.68;25.00;;;;;;;1.43;100.00;100319.86;1744242;81;21216;-78
2022/04/22 00:35:08;;;;;;;50.00;22.32;;;;;;;1.45;100.00;100327.32;1745514;82;21880;-78
2022/04/22 00:38:16;;;;;;;48.78;24.35;;;;;;;1.44;100.00;100324.75;1745707;82;21165;-79
2022/04/22 00:41:22;;;;;;;42.75;23.70;;;;;;;1.45;100.00;100326.46;1744910;81;21172;-79
2022/04/22 00:44:28;;;;;;;46.28;23.65;;;;;;;1.46;100.00;100329.55;1744914;82;21813;-76
2022/04/22 00:47:35;;;;;;;37.93;21.80;;;;;;;1.45;100.00;100324.63;1745176;81;21204;-77
2022/04/22 00:50:41;;;;;;;34.53;20.20;;;;;;;1.43;100.00;100323.04;1745829;82;21161;-79
2022/04/22 00:53:50;;;;;;;31.23;18.62;;;;;;;1.40;100.00;100319.22;1744852;82;21204;-79
2022/04/22 00:56:55;;;;;;;26.45;17.42;;;;;;;1.37;100.00;100324.87;1746182;82;21255;-79
2022/04/22 01:00:02;;;;;;;24.67;16.95;;;;;;;1.35;100.00;100322.76;1747060;81;21181;-81
2022/04/22 01:03:02;;;;;;;28.73;17.67;;;;;;;1.30;100.00;100321.77;1734682;82;21188;-79
2022/04/22 01:09:51;;;;;;;20.10;14.45;;;;;;;1.25;100.00;100324.80;1734972;82;21201;-83
2022/04/22 01:12:57;;;;;;;20.32;13.95;;;;;;;1.23;100.00;100325.91;1734512;82;21220;-81
2022/04/22 01:16:04;;;;;;;21.00;14.13;;;;;;;1.14;100.00;100320.73;1735952;82;21205;-82
2022/04/22 01:19:09;;;;;;;19.82;12.95;;;;;;;1.08;100.00;100321.17;1735924;82;21153;-82
2022/04/22 01:22:08;;;;;;;19.42;13.53;;;;;;;1.06;100.00;100327.66;1735397;82;21201;-82
2022/04/22 01:25:15;;;;;;;27.20;15.23;;;;;;;1.01;100.00;100328.86;1734686;82;21188;-82
2022/04/22 01:28:21;;;;;;;33.58;16.80;;;;;;;0.96;100.00;100330.19;1734560;82;21205;-82
2022/04/22 01:31:30;;;;;;;37.17;16.37;;;;;;;0.90;100.00;100325.27;1734570;82;21188;-82
2022/04/22 01:34:38;;;;;;;36.83;17.77;;;;;;;0.84;100.00;100324.36;1734456;82;21216;-82
2022/04/22 01:37:44;;;;;;;33.53;19.70;;;;;;;0.75;100.00;100328.13;1735198;82;21267;-82
2022/04/22 01:40:49;;;;;;;34.48;19.42;;;;;;;0.68;100.00;100324.16;1736022;82;21229;-82
2022/04/22 01:43:55;;;;;;;95.32;22.93;;;;;;;0.63;100.00;100316.91;1734562;82;21196;-81
2022/04/22 01:47:01;;;;;;;55.00;21.75;;;;;;;0.60;100.00;100322.50;1735630;82;21777;-82
2022/04/22 01:50:08;;;;;;;39.95;24.15;;;;;;;0.56;100.00;100328.22;1735877;82;21161;-82
2022/04/22 01:53:14;;;;;;;44.33;24.00;;;;;;;0.54;100.00;100327.48;1734814;82;21189;-82
2022/04/22 01:56:20;;;;;;;37.40;23.55;;;;;;;0.55;100.00;100327.85;1734456;82;21193;-82
2022/04/22 01:59:26;;;;;;;35.48;23.60;;;;;;;0.57;100.00;100324.58;1734581;82;21710;-82
2022/04/22 02:02:31;;;;;;;90.10;24.70;;;;;;;0.61;100.00;100335.02;1741160;82;21212;-82
2022/04/22 02:05:36;;;;;;;46.08;21.82;;;;;;;0.64;100.00;100338.80;1744779;82;21188;-82
2022/04/22 02:08:42;;;;;;;68.87;20.97;;;;;;;0.66;100.00;100342.27;1744632;81;21200;-82
2022/04/22 02:11:48;;;;;;;105.15;20.97;;;;;;;0.66;100.00;100343.61;1744764;82;21236;-82
2022/04/22 02:14:54;;;;;;;26.82;17.25;;;;;;;0.67;100.00;100343.13;1744796;82;21216;-82
2022/04/22 02:18:01;;;;;;;32.55;17.92;;;;;;;0.72;100.00;100349.03;1744651;81;21777;-82
2022/04/22 02:21:07;;;;;;;68.57;18.32;;;;;;;0.80;100.00;100350.67;1751527;81;21146;-82
2022/04/22 02:24:13;;;;;;;33.33;15.95;;;;;;;0.88;100.00;100354.98;1733958;82;21196;-82
2022/04/22 02:30:36;;;;;;;15.95;9.83;;;;;;;1.02;100.00;100352.62;1733719;82;21748;-81
2022/04/22 02:33:29;;;;;;;84.90;10.23;;;;;;;1.10;100.00;100350.71;1770692;81;21723;-81
2022/04/22 02:36:16;;;;;;;82.35;9.30;;;;;;;1.14;100.00;100349.02;1733771;82;21184;-82
2022/04/22 02:39:09;;;;;;;56.83;10.72;;;;;;;1.21;100.00;100357.00;1772003;81;21138;-82
2022/04/22 02:48:29;;;;;;;138.00;9.08;;;;;;;1.40;100.00;100369.08;1770776;79;21145;-82
2022/04/22 02:51:35;;;;;;;116.60;8.53;;;;;;;1.46;100.00;100372.69;1735177;82;21153;-82
2022/04/22 02:54:34;;;;;;;93.25;8.50;;;;;;;1.47;100.00;100378.44;1770526;80;21201;-82
2022/04/22 02:57:33;;;;;;;152.38;10.23;;;;;;;1.50;100.00;100379.53;1735101;82;21184;-82
2022/04/22 03:00:40;;;;;;;152.30;9.43;;;;;;;1.53;100.00;100382.01;1772037;81;21213;-82
2022/04/22 03:03:46;;;;;;;164.45;9.10;;;;;;;1.60;100.00;100375.65;1734595;82;21161;-82
2022/04/22 03:06:55;;;;;;;107.67;9.28;;;;;;;1.66;100.00;100375.20;1770289;80;21183;-82
2022/04/22 03:10:00;;;;;;;106.45;7.78;;;;;;;1.71;100.00;100376.56;1733775;82;21228;-82
2022/04/22 03:13:07;;;;;;;206.20;10.03;;;;;;;1.77;100.00;100384.66;1770539;79;21220;-82
2022/04/22 03:16:12;;;;;;;176.53;10.50;;;;;;;1.82;100.00;100384.30;1734259;82;21208;-82
2022/04/22 03:19:19;;;;;;;136.47;9.33;;;;;;;1.89;100.00;100387.77;1770547;80;21805;-82
2022/04/22 03:22:26;;;;;;;163.40;8.88;;;;;;;1.95;100.00;100389.13;1734698;82;21192;-81
2022/04/22 03:25:32;;;;;;;135.63;9.50;;;;;;;1.97;100.00;100393.41;1770528;80;21166;-82
2022/04/22 03:28:37;;;;;;;192.53;10.28;;;;;;;2.04;100.00;100400.06;1733897;82;21197;-82
2022/04/22 03:31:44;;;;;;;213.52;10.93;;;;;;;2.15;100.00;100397.86;1771818;81;21850;-82
2022/04/22 03:34:51;;;;;;;118.87;9.73;;;;;;;2.30;100.00;100399.34;1734775;82;21212;-82
2022/04/22 03:37:56;;;;;;;229.87;9.45;;;;;;;2.47;100.00;100395.31;1770686;81;21197;-82
2022/04/22 03:41:02;;;;;;;101.67;7.92;;;;;;;2.64;100.00;100393.13;1734788;82;21239;-83
2022/04/22 03:44:08;;;;;;;73.83;6.92;;;;;;;2.78;100.00;100390.16;1771503;81;21177;-81
2022/04/22 03:47:15;;;;;;;106.65;8.23;;;;;;;2.90;100.00;100396.40;1733557;82;21199;-82
2022/04/22 03:50:22;;;;;;;62.17;7.85;;;;;;;2.97;100.00;100398.98;1771731;81;21209;-82
2022/04/22 03:53:29;;;;;;;54.00;8.03;;;;;;;3.09;100.00;100402.01;1723403;82;21141;-82
2022/04/22 04:00:00;;;;;;;36.63;7.28;;;;;;;3.44;100.00;100405.00;1703033;84;21157;-81
2022/04/22 04:03:07;;;;;;;134.10;7.62;;;;;;;3.60;100.00;100401.36;1738599;82;21793;-81
2022/04/22 04:06:13;;;;;;;44.55;7.28;;;;;;;3.73;100.00;100405.25;1680890;85;21197;-81
2022/04/22 04:16:07;;;;;;;18.27;5.17;;;;;;;4.27;100.00;100413.66;1655599;86;21189;-78
2022/04/22 04:26:00;;;;;;;44.77;6.35;;;;;;;4.71;100.00;100412.98;1680890;85;21205;-81
2022/04/22 04:29:09;;;;;;;35.23;6.25;;;;;;;4.79;100.00;100411.27;1655596;86;21173;-81
2022/04/22 04:32:17;;;;;;;37.20;6.22;;;;;;;4.90;100.00;100414.91;1680736;85;21224;-81
2022/04/22 04:35:21;;;;;;;25.48;5.97;;;;;;;5.02;100.00;100413.28;1657135;86;21189;-81
2022/04/22 04:38:27;;;;;;;20.82;6.17;;;;;;;5.12;100.00;100410.59;1680202;85;21216;-81
2022/04/22 04:41:34;;;;;;;21.60;5.97;;;;;;;5.25;100.00;100403.07;1656679;86;21782;-81
2022/04/22 04:44:40;;;;;;;10.72;7.28;;;;;;;5.42;100.00;100407.47;1681109;85;21225;-81
2022/04/22 04:47:48;;;;;;;10.30;7.83;;;;;;;5.64;100.00;100412.60;1655771;86;21225;-81
2022/04/22 04:50:55;;;;;;;8.88;7.42;;;;;;;5.87;100.00;100415.39;1679799;85;21229;-81
2022/04/22 04:54:01;;;;;;;10.53;7.35;;;;;;;6.10;100.00;100421.41;1656861;86;21228;-81
2022/04/22 04:57:07;;;;;;;10.95;9.53;;;;;;;6.32;100.00;100425.67;1680035;85;21189;-81
2022/04/22 05:00:21;;;;;;;13.38;11.08;;;;;;;6.57;100.00;100435.04;1656484;86;21762;-81
2022/04/22 05:03:24;;;;;;;14.60;11.43;;;;;;;6.84;100.00;100425.23;1679949;85;21284;-82
2022/04/22 05:06:31;;;;;;;17.82;12.58;;;;;;;7.13;100.00;100427.80;1683565;85;21222;-81
2022/04/22 05:09:38;;;;;;;14.50;11.90;;;;;;;7.38;100.00;100433.02;1739475;82;21154;-82
2022/04/22 05:12:45;;;;;;;16.70;13.93;;;;;;;7.56;100.00;100433.05;1703228;84;21750;-81
2022/04/22 05:15:53;;;;;;;19.12;15.03;;;;;;;7.68;100.00;100435.92;1739746;82;21695;-82
2022/04/22 05:18:58;;;;;;;25.77;17.60;;;;;;;7.72;100.00;100444.64;1704229;84;21748;-81
2022/04/22 05:22:04;;;;;;;23.02;15.03;;;;;;;7.74;100.00;100442.61;1738594;82;21248;-81
2022/04/22 05:25:10;;;;;;;23.75;16.32;;;;;;;7.78;100.00;100444.02;1704345;84;21169;-82
2022/04/22 05:28:16;;;;;;;26.20;15.25;;;;;;;7.76;100.00;100450.10;1738101;82;21190;-82
2022/04/22 05:34:46;;;;;;;20.92;15.15;;;;;;;7.68;100.00;100456.34;1765380;81;21675;-82
2022/04/22 05:37:56;;;;;;;21.05;14.25;;;;;;;7.70;100.00;100459.75;1739119;81;21185;-82
2022/04/22 05:41:03;;;;;;;19.35;14.70;;;;;;;7.75;100.00;100464.22;1738379;82;21178;-82
2022/04/22 05:44:10;;;;;;;19.15;13.68;;;;;;;7.81;100.00;100451.85;1740211;82;21203;-82
2022/04/22 05:47:17;;;;;;;19.52;14.98;;;;;;;7.90;100.00;100457.25;1739060;81;21189;-81
2022/04/22 05:50:23;;;;;;;17.73;14.53;;;;;;;8.04;100.00;100455.81;1738248;82;21178;-82
2022/04/22 05:53:30;;;;;;;15.38;12.93;;;;;;;8.25;100.00;100458.74;1739663;81;21197;-83
2022/04/22 05:56:37;;;;;;;17.92;12.95;;;;;;;8.45;100.00;100459.78;1741351;81;21173;-83
2022/04/22 05:59:43;;;;;;;17.17;14.05;;;;;;;8.56;100.00;100461.41;1739881;82;21613;-82
2022/04/22 06:02:50;;;;;;;14.83;12.55;;;;;;;8.74;100.00;100461.33;1768205;81;21212;-83
2022/04/22 06:05:56;;;;;;;16.77;14.28;;;;;;;8.95;100.00;100460.96;1770777;80;21191;-83
2022/04/22 06:12:27;;;;;;;16.67;14.43;;;;;;;9.33;100.00;100458.23;1782805;80;21212;-83
2022/04/22 06:15:33;;;;;;;14.98;13.20;;;;;;;9.56;100.00;100455.77;1749827;80;21235;-82
2022/04/22 06:18:41;;;;;;;18.92;14.10;;;;;;;9.77;100.00;100464.84;1766393;80;21192;-82
2022/04/22 06:21:48;;;;;;;17.52;15.45;;;;;;;9.84;98.69;100463.17;1748036;82;21195;-82
2022/04/22 06:24:48;;;;;;;19.62;14.25;;;;;;;9.94;98.91;100461.65;1768703;80;21141;-82
2022/04/22 06:27:56;;;;;;;18.70;14.73;;;;;;;10.02;97.60;100460.78;1783799;80;21192;-82
2022/04/22 06:31:01;;;;;;;15.40;13.28;;;;;;;10.09;96.09;100465.94;1769818;80;21156;-82
2022/04/22 06:34:07;;;;;;;15.40;12.03;;;;;;;10.17;95.18;100469.53;1778704;80;21746;-82
2022/04/22 06:37:12;;;;;;;16.23;12.73;;;;;;;10.27;94.94;100472.13;1771582;80;21159;-83
2022/04/22 06:47:05;;;;;;;15.05;11.90;;;;;;;10.28;92.53;100473.83;1772821;80;21204;-82
2022/04/22 06:50:17;;;;;;;17.02;13.78;;;;;;;10.22;92.52;100467.66;1773509;80;21121;-82
2022/04/22 06:53:20;;;;;;;15.68;13.45;;;;;;;10.24;93.96;100462.89;1767080;80;21240;-82
2022/04/22 06:56:30;;;;;;;18.37;13.72;;;;;;;10.35;93.83;100472.14;1770635;80;21153;-82
2022/04/22 06:59:36;;;;;;;19.50;14.95;;;;;;;10.41;92.67;100473.33;1774972;80;21173;-82
2022/04/22 07:02:43;;;;;;;18.25;14.05;;;;;;;10.60;94.03;100467.50;1783021;80;21514;-82
2022/04/22 07:05:52;;;;;;;20.43;13.80;;;;;;;10.84;92.64;100474.81;1776900;80;21717;-82
2022/04/22 07:08:57;;;;;;;18.65;13.05;;;;;;;11.03;91.21;100478.19;1774763;80;21173;-83
2022/04/22 07:12:04;;;;;;;16.17;11.80;;;;;;;11.08;89.18;100470.31;1784256;80;21216;-82
2022/04/22 07:15:09;;;;;;;15.55;12.35;;;;;;;11.14;88.62;100468.23;1783363;80;21161;-82
2022/04/22 07:18:16;;;;;;;14.70;12.28;;;;;;;11.26;88.84;100472.30;1785647;80;21165;-83
2022/04/22 07:21:22;;;;;;;12.37;10.38;;;;;;;11.42;87.20;100474.11;1771017;80;21160;-82
2022/04/22 07:24:28;;;;;;;18.40;13.50;;;;;;;11.59;85.70;100474.38;1783322;80;21144;-81
2022/04/22 07:27:36;;;;;;;15.10;12.98;;;;;;;11.68;85.24;100478.79;1781716;80;21193;-78
2022/04/22 07:30:46;;;;;;;13.13;11.73;;;;;;;11.83;85.83;100473.42;1771674;80;21232;-78
2022/04/22 07:33:51;;;;;;;14.83;12.93;;;;;;;11.91;83.22;100472.02;1771036;80;21722;-78
2022/04/22 07:36:58;;;;;;;17.95;13.28;;;;;;;11.92;83.41;100477.82;1774318;79;21200;-79
2022/04/22 07:40:04;;;;;;;16.10;11.93;;;;;;;12.00;82.61;100469.55;1775856;80;21216;-77
2022/04/22 07:46:48;;;;;;;15.23;11.88;;;;;;;12.25;80.05;100476.23;1783926;79;21225;-78
2022/04/22 07:49:54;;;;;;;15.63;11.85;;;;;;;12.25;78.83;100478.97;1772681;80;21173;-78
2022/04/22 07:53:00;;;;;;;20.85;12.90;;;;;;;12.35;79.31;100475.98;1777885;80;21184;-79
2022/04/22 07:56:07;;;;;;;14.25;10.90;;;;;;;12.41;78.20;100472.48;1775700;80;21726;-77
2022/04/22 07:59:16;;;;;;;15.93;11.18;;;;;;;12.43;77.97;100478.14;1754377;82;21236;-77
2022/04/22 08:02:22;;;;;;;16.35;10.82;;;;;;;12.56;77.98;100479.38;1777859;80;21184;-78
2022/04/22 08:05:28;;;;;;;12.20;9.73;;;;;;;12.76;78.62;100477.84;1767159;80;21193;-78
2022/04/22 08:08:36;;;;;;;11.03;9.70;;;;;;;12.83;75.55;100476.04;1774446;80;21742;-77
2022/04/22 08:11:43;;;;;;;11.08;8.68;;;;;;;12.89;75.83;100482.17;1773337;80;21682;-79
2022/04/22 08:14:48;;;;;;;14.90;10.18;;;;;;;12.95;73.19;100471.81;1784470;80;21164;-79
2022/04/22 08:17:57;;;;;;;18.92;10.23;;;;;;;12.92;73.31;100471.33;1776740;79;21161;-79
2022/04/22 08:21:02;;;;;;;18.82;11.40;;;;;;;12.97;74.13;100471.09;1771053;80;21125;-79
2022/04/22 08:24:10;;;;;;;14.03;10.70;;;;;;;13.04;74.17;100469.31;1771441;80;21141;-79
2022/04/22 08:27:16;;;;;;;14.75;9.00;;;;;;;13.13;73.66;100470.59;1775741;80;21153;-79
2022/04/22 08:30:23;;;;;;;10.80;8.50;;;;;;;13.23;72.68;100460.20;1772200;80;21117;-79
2022/04/22 08:33:29;;;;;;;10.95;7.80;;;;;;;13.24;71.19;100460.01;1764711;80;21149;-79
2022/04/22 08:36:37;;;;;;;8.93;8.03;;;;;;;13.27;70.47;100461.54;1773441;80;21219;-79
2022/04/22 08:39:43;;;;;;;9.08;7.80;;;;;;;13.33;70.77;100462.14;1766949;80;21219;-79
2022/04/22 08:42:51;;;;;;;9.88;8.33;;;;;;;13.25;67.52;100452.62;1777805;80;21454;-78
2022/04/22 08:45:56;;;;;;;9.00;7.42;;;;;;;13.10;68.87;100456.71;1766656;80;21172;-78
2022/04/22 08:52:26;;;;;;;10.78;8.83;;;;;;;13.14;68.59;100455.81;1764924;80;21192;-79
2022/04/22 08:55:32;;;;;;;8.33;7.10;;;;;;;13.28;68.96;100464.61;1765539;80;21586;-79
2022/04/22 08:58:38;;;;;;;10.40;7.08;;;;;;;13.41;69.11;100460.67;1764638;80;21125;-79
2022/04/22 09:01:45;;;;;;;8.98;6.30;;;;;;;13.45;66.47;100462.48;1765975;80;21196;-79
2022/04/22 09:04:45;;;;;;;7.35;6.17;;;;;;;13.54;67.36;100459.97;1762615;80;21141;-79
2022/04/22 09:07:45;;;;;;;10.53;6.05;;;;;;;13.69;67.20;100460.81;1763022;80;21165;-79
2022/04/22 09:10:52;;;;;;;10.10;7.37;;;;;;;13.83;66.07;100465.07;1720202;82;21800;-79
2022/04/22 09:14:00;;;;;;;13.78;7.42;;;;;;;13.97;64.10;100471.93;1741655;82;21168;-78
2022/04/22 09:17:06;;;;;;;13.60;8.90;;;;;;;14.09;64.36;100464.00;1717299;80;21157;-78
2022/04/22 09:20:15;;;;;;;12.88;8.38;;;;;;;14.16;63.71;100470.94;1769064;80;21753;-78
2022/04/22 09:23:42;;;;;;;17.60;9.40;;;;;;;14.23;61.85;100469.12;1743976;80;21167;-78
2022/04/22 09:26:49;;;;;;;24.12;10.00;;;;;;;14.31;63.77;100470.38;1705726;84;21187;-78
2022/04/22 09:30:02;;;;;;;19.12;9.33;;;;;;;14.37;61.46;100478.36;1713887;83;21166;-78
2022/04/22 09:33:08;;;;;;;17.92;9.15;;;;;;;14.41;60.40;100471.41;1715664;83;21761;-79
2022/04/22 09:43:03;;;;;;;18.27;9.00;;;;;;;14.20;57.51;100461.25;1705758;82;21761;-78
2022/04/22 09:46:09;;;;;;;18.65;8.93;;;;;;;13.99;56.17;100470.35;1705896;84;21739;-79
2022/04/22 09:49:14;;;;;;;12.93;7.95;;;;;;;13.96;58.16;100468.83;1720579;82;21718;-79
2022/04/22 09:52:19;;;;;;;15.65;7.30;;;;;;;13.99;58.76;100468.45;1727595;83;21734;-78
2022/04/22 09:55:22;;;;;;;15.45;7.22;;;;;;;14.05;57.34;100469.03;1726619;83;21176;-79
2022/04/22 09:58:14;;;;;;;14.47;6.80;;;;;;;14.07;57.11;100460.61;1727119;83;21196;-83
2022/04/22 10:01:20;;;;;;;15.00;7.03;;;;;;;14.14;58.16;100465.64;1726677;82;21749;-82
2022/04/22 10:04:29;;;;;;;16.52;6.83;;;;;;;14.20;57.31;100458.50;1729006;82;21202;-81
2022/04/22 10:07:55;;;;;;;15.35;6.42;;;;;;;14.24;55.54;100461.19;1731766;83;21189;-83
2022/04/22 10:11:05;;;;;;;9.78;6.65;;;;;;;14.35;57.52;100462.55;1710365;84;21231;-83
2022/04/22 10:14:11;;;;;;;13.22;7.12;;;;;;;14.42;57.10;100464.86;1725540;83;21159;-83
2022/04/22 10:17:18;;;;;;;12.00;6.67;;;;;;;14.49;56.40;100463.91;1711036;83;21251;-82
2022/04/22 10:20:25;;;;;;;12.73;7.10;;;;;;;14.55;54.25;100469.14;1723605;83;21743;-82
2022/04/22 10:23:32;;;;;;;15.50;6.90;;;;;;;14.60;54.23;100468.55;1710354;83;21211;-83
2022/04/22 10:26:39;;;;;;;17.85;7.70;;;;;;;14.50;52.98;100473.86;1723534;83;21182;-82
2022/04/22 10:29:46;;;;;;;12.98;7.60;;;;;;;14.42;53.08;100474.48;1711787;84;21776;-82
2022/04/22 10:32:52;;;;;;;11.40;7.10;;;;;;;14.46;54.68;100478.02;1724358;83;21720;-82
2022/04/22 10:36:07;;;;;;;13.18;7.20;;;;;;;14.54;54.68;100479.30;1687820;84;21782;-82
2022/04/22 10:39:14;;;;;;;11.28;7.80;;;;;;;14.46;54.36;100472.52;1703161;83;21775;-82
2022/04/22 10:42:25;;;;;;;16.62;7.95;;;;;;;14.44;55.77;100472.38;1711930;84;21705;-82
2022/04/22 10:49:20;;;;;;;11.85;8.48;;;;;;;14.71;55.39;100477.63;1716707;83;21194;-79
2022/04/22 10:52:25;;;;;;;10.60;7.60;;;;;;;14.82;55.02;100475.20;1689319;83;21218;-82
2022/04/22 10:55:30;;;;;;;9.93;7.37;;;;;;;14.96;54.42;100473.39;1767938;81;21630;-82
2022/04/22 10:58:38;;;;;;;14.65;7.53;;;;;;;15.05;53.95;100463.89;1764708;81;21252;-83
2022/04/22 11:01:47;;;;;;;10.98;8.40;;;;;;;15.07;55.33;100459.05;1763158;80;21272;-82
2022/04/22 11:04:53;;;;;;;9.35;7.45;;;;;;;15.12;55.84;100458.97;1766500;81;21234;-83
2022/04/22 11:08:01;;;;;;;8.90;6.75;;;;;;;15.21;55.17;100458.61;1765141;80;21229;-82
2022/04/22 11:11:11;;;;;;;14.15;7.30;;;;;;;15.22;54.19;100459.45;1766659;81;21750;-83
2022/04/22 11:14:33;;;;;;;9.83;7.10;;;;;;;15.13;54.12;100453.78;1766650;81;21553;-82
2022/04/22 11:17:44;;;;;;;10.58;6.92;;;;;;;15.11;53.83;100454.52;1738674;81;21224;-82
2022/04/22 11:20:58;;;;;;;7.92;5.83;;;;;;;15.09;52.14;100449.20;1727367;82;21738;-82
2022/04/22 11:24:05;;;;;;;10.03;6.72;;;;;;;15.11;52.81;100453.14;1715929;82;21229;-82
2022/04/22 11:27:16;;;;;;;14.60;7.25;;;;;;;15.06;52.88;100450.47;1735348;82;21157;-82
2022/04/22 11:30:22;;;;;;;11.75;7.47;;;;;;;14.99;53.84;100447.34;1736776;81;21201;-82
2022/04/22 11:33:31;;;;;;;12.30;7.28;;;;;;;14.92;54.88;100451.44;1734268;81;21169;-82
2022/04/22 11:36:32;;;;;;;13.62;6.85;;;;;;;14.89;54.67;100441.34;1736121;82;21146;-82
2022/04/22 11:39:32;;;;;;;8.50;7.12;;;;;;;14.98;54.08;100440.98;1719164;82;21189;-82
2022/04/22 11:42:38;;;;;;;10.10;7.12;;;;;;;15.11;52.97;100440.75;1734720;82;21725;-82
2022/04/22 11:45:49;;;;;;;9.00;7.30;;;;;;;15.25;53.65;100435.11;1738047;81;21156;-81
2022/04/22 11:48:57;;;;;;;14.10;8.55;;;;;;;15.43;54.84;100432.31;1735793;82;21150;-82
2022/04/22 11:52:03;;;;;;;9.80;6.83;;;;;;;15.58;54.81;100438.02;1739377;81;21174;-83
2022/04/22 11:55:09;;;;;;;13.62;8.70;;;;;;;15.56;52.27;100435.12;1727654;81;21129;-82
2022/04/22 11:58:19;;;;;;;16.37;8.58;;;;;;;15.38;52.97;100436.20;1726185;82;21161;-82
2022/04/22 12:08:18;;;;;;;9.65;5.92;;;;;;;15.19;53.87;100435.90;1731685;82;21725;-82
2022/04/22 12:11:24;;;;;;;13.65;6.40;;;;;;;15.17;54.04;100431.66;1733931;82;21141;-82
2022/04/22 12:14:33;;;;;;;7.83;5.22;;;;;;;15.03;52.86;100432.95;1720413;82;21212;-82
2022/04/22 12:17:40;;;;;;;10.43;6.03;;;;;;;14.92;53.38;100435.44;1723194;82;21774;-82
2022/04/22 12:20:46;;;;;;;8.08;6.05;;;;;;;14.88;54.05;100430.85;1732782;82;21754;-82
2022/04/22 12:23:53;;;;;;;8.58;5.70;;;;;;;14.82;56.55;100427.01;1719020;82;21701;-82
2022/04/22 12:27:01;;;;;;;7.53;5.50;;;;;;;14.81;56.68;100429.41;1723025;82;21221;-83
2022/04/22 12:30:18;;;;;;;7.15;6.17;;;;;;;14.86;58.02;100432.94;1725017;82;21146;-82
2022/04/22 12:33:34;;;;;;;7.87;6.50;;;;;;;14.86;57.56;100438.97;1733460;82;21714;-81
2022/04/22 12:36:46;;;;;;;13.50;6.22;;;;;;;14.77;57.83;100433.64;1732464;82;21145;-82
2022/04/22 12:39:53;;;;;;;7.70;6.05;;;;;;;14.69;59.71;100442.58;1746993;82;21235;-82
2022/04/22 12:42:59;;;;;;;9.48;6.25;;;;;;;14.57;59.55;100451.36;1747463;82;21196;-82
2022/04/22 12:53:13;;;;;;;10.35;5.45;;;;;;;14.37;59.82;100430.20;1747245;82;21785;-83
2022/04/22 12:56:20;;;;;;;9.85;6.17;;;;;;;14.28;60.23;100422.61;1750445;81;21165;-82
2022/04/22 12:59:27;;;;;;;7.25;5.00;;;;;;;14.28;59.75;100429.48;1738326;82;21225;-82
2022/04/22 13:02:40;;;;;;;5.85;4.37;;;;;;;14.34;58.76;100431.44;1717441;83;21267;-83
2022/04/22 13:05:46;;;;;;;6.05;4.33;;;;;;;14.42;56.44;100432.68;1738265;82;21213;-82
2022/04/22 13:08:53;;;;;;;5.25;4.67;;;;;;;14.48;54.66;100439.31;1718045;83;21208;-82
2022/04/22 13:12:00;;;;;;;7.58;5.10;;;;;;;14.47;55.14;100437.59;1738050;82;21177;-82
2022/04/22 13:15:06;;;;;;;7.08;4.67;;;;;;;14.45;54.50;100441.08;1716870;83;21820;-82
2022/04/22 13:18:12;;;;;;;12.95;5.33;;;;;;;14.46;53.83;100445.00;1716658;83;21756;-82
2022/04/22 13:21:19;;;;;;;10.13;4.50;;;;;;;14.50;54.01;100431.20;1736836;82;21166;-83
2022/04/22 13:24:25;;;;;;;8.25;5.28;;;;;;;14.57;53.10;100425.73;1717472;83;21176;-83
2022/04/22 13:27:31;;;;;;;8.98;5.65;;;;;;;14.64;53.14;100429.41;1737117;82;21749;-82
2022/04/22 13:30:36;;;;;;;6.30;4.83;;;;;;;14.70;53.21;100426.38;1716737;83;21180;-82
2022/04/22 13:33:43;;;;;;;6.40;4.75;;;;;;;14.79;53.29;100433.44;1736840;82;21177;-83
2022/04/22 13:36:48;;;;;;;8.88;5.65;;;;;;;14.86;51.63;100427.44;1717995;83;21206;-83
2022/04/22 13:39:56;;;;;;;7.50;5.62;;;;;;;14.89;52.67;100428.41;1737009;82;21154;-82
2022/04/22 13:43:01;;;;;;;8.98;5.17;;;;;;;14.90;51.63;100421.84;1717206;83;21216;-82
2022/04/22 13:52:56;;;;;;;6.90;4.55;;;;;;;14.92;51.47;100423.89;1738298;82;21193;-83
2022/04/22 13:56:04;;;;;;;6.85;4.35;;;;;;;14.96;51.39;100419.69;1713785;83;21247;-82
2022/04/22 13:59:21;;;;;;;12.58;5.03;;;;;;;14.98;52.11;100410.68;1659477;86;21193;-82
2022/04/22 14:02:26;;;;;;;8.03;4.67;;;;;;;14.94;52.42;100420.92;1729943;83;21891;-79
2022/04/22 14:05:31;;;;;;;6.47;4.65;;;;;;;14.90;52.64;100417.72;1726732;83;21168;-81
2022/04/22 14:08:37;;;;;;;9.63;4.80;;;;;;;14.88;52.77;100414.33;1721988;82;21710;-79
2022/04/22 14:11:45;;;;;;;9.73;5.25;;;;;;;14.87;52.39;100417.27;1738036;82;21129;-79
2022/04/22 14:14:45;;;;;;;6.00;4.83;;;;;;;14.86;52.37;100413.66;1728007;82;21213;-79
2022/04/22 14:17:52;;;;;;;9.15;4.10;;;;;;;14.78;52.75;100405.58;1748667;82;21201;-78
2022/04/22 14:20:57;;;;;;;5.58;3.98;;;;;;;14.64;51.90;100408.77;1750418;82;21180;-78
2022/04/22 14:24:04;;;;;;;6.22;4.50;;;;;;;14.47;51.38;100408.69;1749224;81;21228;-78
2022/04/22 14:27:14;;;;;;;5.95;4.35;;;;;;;14.30;52.67;100402.61;1750102;82;21187;-78
2022/04/22 14:30:12;;;;;;;9.73;6.40;;;;;;;14.11;53.10;100393.66;1750975;82;21156;-79
2022/04/22 14:33:21;;;;;;;6.55;4.58;;;;;;;13.98;53.17;100390.28;1749589;82;21745;-78
2022/04/22 14:36:27;;;;;;;10.50;4.92;;;;;;;13.81;53.90;100396.55;1749136;82;21761;-79
2022/04/22 14:39:34;;;;;;;10.08;5.03;;;;;;;13.71;54.45;100395.48;1750514;82;21207;-78
2022/04/22 14:42:40;;;;;;;8.00;4.55;;;;;;;13.62;54.32;100407.65;1749310;82;21539;-79
2022/04/22 14:45:46;;;;;;;6.22;4.70;;;;;;;13.58;55.03;100400.83;1749564;82;21232;-79
2022/04/22 14:48:46;;;;;;;9.25;5.37;;;;;;;13.54;54.97;100398.98;1726094;82;21798;-79
2022/04/22 14:51:47;;;;;;;5.40;4.65;;;;;;;13.52;54.35;100399.72;1750711;82;21654;-79
2022/04/22 14:54:40;;;;;;;11.10;5.45;;;;;;;13.49;54.68;100398.72;1750806;82;21161;-78
2022/04/22 14:57:26;;;;;;;7.80;3.90;;;;;;;13.42;53.99;100402.45;1715782;83;21183;-79
2022/04/22 15:00:34;;;;;;;5.60;4.47;;;;;;;13.30;53.85;100405.67;1677968;85;21164;-78
2022/04/22 15:03:40;;;;;;;8.05;4.45;;;;;;;13.20;54.66;100396.00;1677122;85;21220;-78
2022/04/22 15:06:47;;;;;;;9.98;4.53;;;;;;;13.11;55.09;100388.91;1676898;84;21204;-77
2022/04/22 15:09:53;;;;;;;10.98;5.00;;;;;;;13.00;55.37;100386.98;1676489;85;21184;-77
2022/04/22 15:12:59;;;;;;;7.75;4.55;;;;;;;12.89;56.40;100390.21;1678167;85;21197;-77
2022/04/22 15:16:05;;;;;;;6.85;5.10;;;;;;;12.77;56.38;100392.56;1679013;85;21192;-77
2022/04/22 15:26:01;;;;;;;9.88;5.45;;;;;;;12.47;58.28;100380.72;1678402;85;21177;-77
2022/04/22 15:29:09;;;;;;;7.70;5.92;;;;;;;12.40;59.71;100384.38;1678843;85;21185;-78
2022/04/22 15:32:17;;;;;;;8.18;5.55;;;;;;;12.32;60.71;100377.07;1678403;85;21204;-78
2022/04/22 15:35:26;;;;;;;13.90;7.72;;;;;;;12.26;60.75;100380.56;1678676;85;21236;-78
2022/04/22 15:38:31;;;;;;;15.88;9.78;;;;;;;12.19;61.90;100372.23;1677502;85;21255;-78
2022/04/22 15:41:40;;;;;;;14.83;9.68;;;;;;;12.11;62.17;100365.45;1678923;85;21169;-79